sensor_id;sensor_type;location;lat;lon;timestamp;pressure;altitude;pressure_sealevel;temperature;humidity
35519;BME280;21627;48.216;16.482;2023-03-13T00:01:29;99697.81;;;6.60;72.91
35519;BME280;21627;48.216;16.482;2023-03-13T00:03:56;99699.56;;;6.61;73.62
35519;BME280;21627;48.216;16.482;2023-03-13T00:06:30;99711.50;;;6.59;74.08
35519;BME280;21627;48.216;16.482;2023-03-13T00:09:03;99699.50;;;6.59;74.29
35519;BME280;21627;48.216;16.482;2023-03-13T00:11:31;99691.72;;;6.53;75.43
35519;BME280;21627;48.216;16.482;2023-03-13T00:14:01;99689.81;;;6.41;75.47
35519;BME280;21627;48.216;16.482;2023-03-13T00:16:29;99682.16;;;6.44;76.21
35519;BME280;21627;48.216;16.482;2023-03-13T00:18:57;99674.38;;;6.40;76.20
35519;BME280;21627;48.216;16.482;2023-03-13T00:21:27;99678.03;;;6.54;76.54
35519;BME280;21627;48.216;16.482;2023-03-13T00:23:57;99673.75;;;6.53;76.87
35519;BME280;21627;48.216;16.482;2023-03-13T00:26:26;99668.69;;;6.58;76.55
35519;BME280;21627;48.216;16.482;2023-03-13T00:28:53;99667.88;;;6.60;76.48
35519;BME280;21627;48.216;16.482;2023-03-13T00:31:29;99673.00;;;6.62;77.21
35519;BME280;21627;48.216;16.482;2023-03-13T00:34:02;99651.50;;;6.54;77.43
35519;BME280;21627;48.216;16.482;2023-03-13T00:36:32;99661.13;;;6.68;77.14
35519;BME280;21627;48.216;16.482;2023-03-13T00:39:04;99649.84;;;6.59;77.41
35519;BME280;21627;48.216;16.482;2023-03-13T00:41:32;99657.69;;;6.68;76.81
35519;BME280;21627;48.216;16.482;2023-03-13T00:44:00;99643.84;;;6.60;76.92
35519;BME280;21627;48.216;16.482;2023-03-13T00:46:29;99646.53;;;6.66;77.64
35519;BME280;21627;48.216;16.482;2023-03-13T00:48:57;99637.06;;;6.65;77.14
35519;BME280;21627;48.216;16.482;2023-03-13T00:51:25;99642.31;;;6.72;75.89
35519;BME280;21627;48.216;16.482;2023-03-13T00:53:55;99634.53;;;6.66;76.58
35519;BME280;21627;48.216;16.482;2023-03-13T00:56:23;99646.63;;;6.75;76.14
35519;BME280;21627;48.216;16.482;2023-03-13T00:58:50;99648.38;;;6.76;75.59
35519;BME280;21627;48.216;16.482;2023-03-13T01:01:23;99647.47;;;6.71;75.86
35519;BME280;21627;48.216;16.482;2023-03-13T01:03:55;99653.41;;;6.70;75.78
35519;BME280;21627;48.216;16.482;2023-03-13T01:06:26;99636.22;;;6.64;75.50
35519;BME280;21627;48.216;16.482;2023-03-13T01:08:54;99639.66;;;6.63;75.60
35519;BME280;21627;48.216;16.482;2023-03-13T01:11:28;99629.38;;;6.63;74.90
35519;BME280;21627;48.216;16.482;2023-03-13T01:14:01;99625.91;;;6.61;75.25
35519;BME280;21627;48.216;16.482;2023-03-13T01:16:32;99628.44;;;6.60;75.37
35519;BME280;21627;48.216;16.482;2023-03-13T01:19:04;99631.03;;;6.61;75.84
35519;BME280;21627;48.216;16.482;2023-03-13T01:21:31;99619.88;;;6.58;75.90
35519;BME280;21627;48.216;16.482;2023-03-13T01:23:59;99600.91;;;6.49;76.55
35519;BME280;21627;48.216;16.482;2023-03-13T01:26:27;99612.94;;;6.52;77.06
35519;BME280;21627;48.216;16.482;2023-03-13T01:28:55;99593.94;;;6.41;77.11
35519;BME280;21627;48.216;16.482;2023-03-13T01:31:32;99609.44;;;6.45;77.91
35519;BME280;21627;48.216;16.482;2023-03-13T01:34:03;99618.00;;;6.47;77.42
35519;BME280;21627;48.216;16.482;2023-03-13T01:36:32;99622.31;;;6.48;76.70
35519;BME280;21627;48.216;16.482;2023-03-13T01:38:59;99602.47;;;6.40;76.95
35519;BME280;21627;48.216;16.482;2023-03-13T01:41:28;99606.81;;;6.44;76.83
35519;BME280;21627;48.216;16.482;2023-03-13T01:43:57;99616.22;;;6.40;77.88
35519;BME280;21627;48.216;16.482;2023-03-13T01:46:27;99604.94;;;6.31;77.81
35519;BME280;21627;48.216;16.482;2023-03-13T01:49:10;99601.44;;;6.27;78.33
35519;BME280;21627;48.216;16.482;2023-03-13T01:51:52;99611.78;;;6.32;77.51
35519;BME280;21627;48.216;16.482;2023-03-13T01:57:21;99616.81;;;6.24;77.72
35519;BME280;21627;48.216;16.482;2023-03-13T02:00:03;99611.66;;;6.24;78.40
35519;BME280;21627;48.216;16.482;2023-03-13T02:02:35;99603.94;;;6.21;80.29
35519;BME280;21627;48.216;16.482;2023-03-13T02:05:05;99614.97;;;6.17;80.02
35519;BME280;21627;48.216;16.482;2023-03-13T02:07:42;99599.38;;;6.03;79.77
35519;BME280;21627;48.216;16.482;2023-03-13T02:10:12;99595.97;;;6.04;79.26
35519;BME280;21627;48.216;16.482;2023-03-13T02:12:41;99600.31;;;6.08;79.03
35519;BME280;21627;48.216;16.482;2023-03-13T02:15:14;99601.16;;;6.09;79.32
35519;BME280;21627;48.216;16.482;2023-03-13T02:17:44;99595.94;;;6.02;79.91
35519;BME280;21627;48.216;16.482;2023-03-13T02:20:14;99589.94;;;6.02;79.60
35519;BME280;21627;48.216;16.482;2023-03-13T02:28:02;99595.88;;;5.99;79.91
35519;BME280;21627;48.216;16.482;2023-03-13T02:30:30;99595.25;;;6.13;80.30
35519;BME280;21627;48.216;16.482;2023-03-13T02:33:00;99597.00;;;6.17;80.37
35519;BME280;21627;48.216;16.482;2023-03-13T02:35:29;99579.06;;;6.20;80.34
35519;BME280;21627;48.216;16.482;2023-03-13T02:38:02;99578.28;;;6.22;79.61
35519;BME280;21627;48.216;16.482;2023-03-13T02:40:37;99585.44;;;6.43;79.80
35519;BME280;21627;48.216;16.482;2023-03-13T02:43:35;99594.69;;;6.34;80.53
35519;BME280;21627;48.216;16.482;2023-03-13T02:46:13;99595.56;;;6.34;81.12
35519;BME280;21627;48.216;16.482;2023-03-13T02:48:45;99587.81;;;6.31;80.92
35519;BME280;21627;48.216;16.482;2023-03-13T02:51:36;99593.06;;;6.39;81.36
35519;BME280;21627;48.216;16.482;2023-03-13T02:54:09;99603.38;;;6.40;81.46
35519;BME280;21627;48.216;16.482;2023-03-13T02:56:41;99590.47;;;6.37;81.41
35519;BME280;21627;48.216;16.482;2023-03-13T02:59:09;99608.47;;;6.39;81.77
35519;BME280;21627;48.216;16.482;2023-03-13T03:01:36;99607.56;;;6.35;82.37
35519;BME280;21627;48.216;16.482;2023-03-13T03:04:03;99612.00;;;6.47;81.96
35519;BME280;21627;48.216;16.482;2023-03-13T03:06:31;99602.59;;;6.46;82.49
35519;BME280;21627;48.216;16.482;2023-03-13T03:08:58;99612.00;;;6.47;82.68
35519;BME280;21627;48.216;16.482;2023-03-13T03:11:25;99605.22;;;6.50;82.98
35519;BME280;21627;48.216;16.482;2023-03-13T03:13:53;99606.00;;;6.46;83.29
35519;BME280;21627;48.216;16.482;2023-03-13T03:16:20;99610.34;;;6.52;82.98
35519;BME280;21627;48.216;16.482;2023-03-13T03:18:47;99612.06;;;6.52;82.98
35519;BME280;21627;48.216;16.482;2023-03-13T03:21:14;99597.50;;;6.52;82.94
35519;BME280;21627;48.216;16.482;2023-03-13T03:23:41;99613.09;;;6.64;82.53
35519;BME280;21627;48.216;16.482;2023-03-13T03:26:09;99602.84;;;6.66;82.61
35519;BME280;21627;48.216;16.482;2023-03-13T03:28:36;99608.88;;;6.68;82.23
35519;BME280;21627;48.216;16.482;2023-03-13T03:31:09;99611.41;;;6.66;82.78
35519;BME280;21627;48.216;16.482;2023-03-13T03:33:37;99602.81;;;6.64;83.51
35519;BME280;21627;48.216;16.482;2023-03-13T03:36:09;99605.22;;;6.52;84.08
35519;BME280;21627;48.216;16.482;2023-03-13T03:38:36;99611.22;;;6.51;85.31
35519;BME280;21627;48.216;16.482;2023-03-13T03:41:10;99597.38;;;6.41;86.52
35519;BME280;21627;48.216;16.482;2023-03-13T03:43:38;99610.19;;;6.40;87.64
35519;BME280;21627;48.216;16.482;2023-03-13T03:46:06;99611.88;;;6.38;87.83
35519;BME280;21627;48.216;16.482;2023-03-13T03:48:34;99617.78;;;6.32;87.16
35519;BME280;21627;48.216;16.482;2023-03-13T03:51:01;99620.25;;;6.26;87.76
35519;BME280;21627;48.216;16.482;2023-03-13T03:53:28;99620.22;;;6.24;87.32
35519;BME280;21627;48.216;16.482;2023-03-13T03:55:56;99622.78;;;6.23;87.00
35519;BME280;21627;48.216;16.482;2023-03-13T03:58:23;99605.53;;;6.14;87.38
35519;BME280;21627;48.216;16.482;2023-03-13T04:00:50;99607.28;;;6.15;88.49
35519;BME280;21627;48.216;16.482;2023-03-13T04:03:17;99618.44;;;6.19;88.29
35519;BME280;21627;48.216;16.482;2023-03-13T04:05:44;99618.47;;;6.22;87.83
35519;BME280;21627;48.216;16.482;2023-03-13T04:08:12;99621.03;;;6.20;87.81
35519;BME280;21627;48.216;16.482;2023-03-13T04:10:39;99625.31;;;6.21;87.94
35519;BME280;21627;48.216;16.482;2023-03-13T04:13:06;99618.44;;;6.19;88.34
35519;BME280;21627;48.216;16.482;2023-03-13T04:15:34;99622.72;;;6.18;87.36
35519;BME280;21627;48.216;16.482;2023-03-13T04:18:01;99622.72;;;6.18;87.53
35519;BME280;21627;48.216;16.482;2023-03-13T04:20:28;99623.63;;;6.22;87.52
35519;BME280;21627;48.216;16.482;2023-03-13T04:22:55;99615.03;;;6.20;87.39
35519;BME280;21627;48.216;16.482;2023-03-13T04:25:22;99608.13;;;6.16;87.96
35519;BME280;21627;48.216;16.482;2023-03-13T04:27:50;99610.66;;;6.13;88.91
35519;BME280;21627;48.216;16.482;2023-03-13T04:30:17;99613.97;;;6.07;89.67
35519;BME280;21627;48.216;16.482;2023-03-13T04:32:45;99617.34;;;6.04;90.54
35519;BME280;21627;48.216;16.482;2023-03-13T04:35:12;99596.66;;;5.94;90.82
35519;BME280;21627;48.216;16.482;2023-03-13T04:37:39;99601.00;;;5.98;90.19
35519;BME280;21627;48.216;16.482;2023-03-13T04:40:07;99594.09;;;5.94;90.43
35519;BME280;21627;48.216;16.482;2023-03-13T04:42:35;99587.09;;;5.85;91.08
35519;BME280;21627;48.216;16.482;2023-03-13T04:45:02;99591.38;;;5.86;91.27
35519;BME280;21627;48.216;16.482;2023-03-13T04:47:29;99574.00;;;5.71;91.25
35519;BME280;21627;48.216;16.482;2023-03-13T04:49:56;99586.16;;;5.81;91.15
35519;BME280;21627;48.216;16.482;2023-03-13T04:52:23;99582.72;;;5.81;91.46
35519;BME280;21627;48.216;16.482;2023-03-13T04:54:50;99587.09;;;5.86;91.53
35519;BME280;21627;48.216;16.482;2023-03-13T04:57:18;99587.09;;;5.85;91.20
35519;BME280;21627;48.216;16.482;2023-03-13T04:59:45;99588.75;;;5.83;91.76
35519;BME280;21627;48.216;16.482;2023-03-13T05:02:12;99574.09;;;5.76;91.37
35519;BME280;21627;48.216;16.482;2023-03-13T05:04:39;99577.66;;;5.84;90.93
35519;BME280;21627;48.216;16.482;2023-03-13T05:07:07;99577.66;;;5.84;90.91
35519;BME280;21627;48.216;16.482;2023-03-13T05:09:34;99578.34;;;6.27;86.86
35519;BME280;21627;48.216;16.482;2023-03-13T05:12:01;99573.94;;;6.20;86.82
35519;BME280;21627;48.216;16.482;2023-03-13T05:14:28;99568.06;;;6.25;87.28
35519;BME280;21627;48.216;16.482;2023-03-13T05:16:55;99569.69;;;6.20;87.11
35519;BME280;21627;48.216;16.482;2023-03-13T05:19:22;99567.25;;;6.29;85.55
35519;BME280;21627;48.216;16.482;2023-03-13T05:21:49;99560.47;;;6.35;84.87
35519;BME280;21627;48.216;16.482;2023-03-13T05:24:16;99551.06;;;6.34;85.09
35519;BME280;21627;48.216;16.482;2023-03-13T05:26:44;99565.66;;;6.38;83.95
35519;BME280;21627;48.216;16.482;2023-03-13T05:29:11;99574.31;;;6.43;84.32
35519;BME280;21627;48.216;16.482;2023-03-13T05:31:38;99554.69;;;6.49;82.88
35519;BME280;21627;48.216;16.482;2023-03-13T05:34:05;99552.03;;;6.43;82.54
35519;BME280;21627;48.216;16.482;2023-03-13T05:36:32;99562.47;;;6.57;82.41
35519;BME280;21627;48.216;16.482;2023-03-13T05:38:59;99559.13;;;6.61;81.78
35519;BME280;21627;48.216;16.482;2023-03-13T05:41:26;99556.63;;;6.67;80.80
35519;BME280;21627;48.216;16.482;2023-03-13T05:43:54;99561.63;;;6.57;81.86
35519;BME280;21627;48.216;16.482;2023-03-13T05:46:21;99558.94;;;6.49;82.75
35519;BME280;21627;48.216;16.482;2023-03-13T05:48:48;99564.06;;;6.47;82.79
35519;BME280;21627;48.216;16.482;2023-03-13T05:51:15;99561.66;;;6.60;81.86
35519;BME280;21627;48.216;16.482;2023-03-13T05:53:42;99562.53;;;6.60;81.87
35519;BME280;21627;48.216;16.482;2023-03-13T05:56:09;99553.19;;;6.67;81.39
35519;BME280;21627;48.216;16.482;2023-03-13T05:58:36;99556.69;;;6.70;81.52
35519;BME280;21627;48.216;16.482;2023-03-13T06:01:09;99548.97;;;6.70;81.87
35519;BME280;21627;48.216;16.482;2023-03-13T06:03:36;99527.53;;;6.70;81.95
35519;BME280;21627;48.216;16.482;2023-03-13T06:06:04;99541.28;;;6.74;81.72
35519;BME280;21627;48.216;16.482;2023-03-13T06:08:31;99541.75;;;7.15;83.26
35519;BME280;21627;48.216;16.482;2023-03-13T06:11:00;99541.69;;;7.09;78.88
35519;BME280;21627;48.216;16.482;2023-03-13T06:13:28;99531.38;;;7.06;79.12
35519;BME280;21627;48.216;16.482;2023-03-13T06:15:56;99526.13;;;6.97;79.84
35519;BME280;21627;48.216;16.482;2023-03-13T06:18:24;99525.28;;;6.96;78.69
35519;BME280;21627;48.216;16.482;2023-03-13T06:20:58;99534.75;;;7.02;78.65
35519;BME280;21627;48.216;16.482;2023-03-13T06:23:26;99546.75;;;7.01;79.56
35519;BME280;21627;48.216;16.482;2023-03-13T06:25:54;99537.38;;;7.08;77.37
35519;BME280;21627;48.216;16.482;2023-03-13T06:28:21;99540.00;;;7.12;77.02
35519;BME280;21627;48.216;16.482;2023-03-13T06:30:48;99532.25;;;7.09;77.33
35519;BME280;21627;48.216;16.482;2023-03-13T06:33:15;99540.06;;;7.17;77.35
35519;BME280;21627;48.216;16.482;2023-03-13T06:35:43;99528.94;;;7.20;77.31
35519;BME280;21627;48.216;16.482;2023-03-13T06:38:23;99531.66;;;7.33;76.99
35519;BME280;21627;48.216;16.482;2023-03-13T06:40:51;99526.66;;;7.49;76.07
35519;BME280;21627;48.216;16.482;2023-03-13T06:43:18;99527.53;;;7.52;74.84
35519;BME280;21627;48.216;16.482;2023-03-13T06:45:46;99525.03;;;7.62;74.47
35519;BME280;21627;48.216;16.482;2023-03-13T06:48:13;99524.22;;;7.67;74.53
35519;BME280;21627;48.216;16.482;2023-03-13T06:50:41;99522.59;;;7.77;73.31
35519;BME280;21627;48.216;16.482;2023-03-13T06:53:17;99523.44;;;7.77;74.38
35519;BME280;21627;48.216;16.482;2023-03-13T06:55:45;99518.31;;;7.79;74.10
35519;BME280;21627;48.216;16.482;2023-03-13T06:58:12;99510.59;;;7.84;72.54
35519;BME280;21627;48.216;16.482;2023-03-13T07:00:58;99508.06;;;7.85;72.89
35519;BME280;21627;48.216;16.482;2023-03-13T07:03:25;99503.84;;;7.96;73.55
35519;BME280;21627;48.216;16.482;2023-03-13T07:05:57;99505.59;;;8.02;73.79
35519;BME280;21627;48.216;16.482;2023-03-13T07:08:24;99505.72;;;8.19;70.86
35519;BME280;21627;48.216;16.482;2023-03-13T07:10:56;99514.34;;;8.33;69.14
35519;BME280;21627;48.216;16.482;2023-03-13T07:13:33;99501.50;;;8.38;69.30
35519;BME280;21627;48.216;16.482;2023-03-13T07:16:06;99492.97;;;8.48;69.87
35519;BME280;21627;48.216;16.482;2023-03-13T07:18:34;99486.19;;;8.62;70.70
35519;BME280;21627;48.216;16.482;2023-03-13T07:21:03;99481.06;;;8.73;71.24
35519;BME280;21627;48.216;16.482;2023-03-13T07:23:33;99488.03;;;9.19;69.95
35519;BME280;21627;48.216;16.482;2023-03-13T07:26:13;99485.47;;;9.42;69.31
35519;BME280;21627;48.216;16.482;2023-03-13T07:28:41;99480.31;;;9.63;68.74
35519;BME280;21627;48.216;16.482;2023-03-13T07:31:15;99471.69;;;9.77;66.61
35519;BME280;21627;48.216;16.482;2023-03-13T07:33:44;99485.41;;;10.05;62.00
35519;BME280;21627;48.216;16.482;2023-03-13T07:36:13;99468.19;;;10.08;60.97
35519;BME280;21627;48.216;16.482;2023-03-13T07:38:41;99463.84;;;10.12;63.94
35519;BME280;21627;48.216;16.482;2023-03-13T07:41:11;99457.81;;;10.13;67.28
35519;BME280;21627;48.216;16.482;2023-03-13T07:43:39;99442.31;;;10.31;67.25
35519;BME280;21627;48.216;16.482;2023-03-13T07:46:13;99459.44;;;10.54;68.29
35519;BME280;21627;48.216;16.482;2023-03-13T07:48:42;99461.88;;;10.81;68.51
35519;BME280;21627;48.216;16.482;2023-03-13T07:51:21;99457.38;;;11.10;67.66
35519;BME280;21627;48.216;16.482;2023-03-13T07:54:06;99439.88;;;11.41;68.18
35519;BME280;21627;48.216;16.482;2023-03-13T07:56:33;99453.56;;;11.57;66.85
35519;BME280;21627;48.216;16.482;2023-03-13T07:59:00;99450.03;;;11.65;65.29
35519;BME280;21627;48.216;16.482;2023-03-13T08:01:27;99449.31;;;11.48;65.69
35519;BME280;21627;48.216;16.482;2023-03-13T08:03:57;99449.38;;;11.39;63.26
35519;BME280;21627;48.216;16.482;2023-03-13T08:06:30;99448.59;;;11.32;65.05
35519;BME280;21627;48.216;16.482;2023-03-13T08:09:00;99442.69;;;11.16;62.79
35519;BME280;21627;48.216;16.482;2023-03-13T08:11:28;99442.75;;;11.05;65.46
35519;BME280;21627;48.216;16.482;2023-03-13T08:13:57;99452.16;;;11.16;66.07
35519;BME280;21627;48.216;16.482;2023-03-13T08:16:31;99453.75;;;11.35;65.04
35519;BME280;21627;48.216;16.482;2023-03-13T08:19:01;99446.75;;;11.46;64.81
35519;BME280;21627;48.216;16.482;2023-03-13T08:21:34;99436.28;;;11.59;61.60
35519;BME280;21627;48.216;16.482;2023-03-13T08:24:06;99442.34;;;11.56;60.94
35519;BME280;21627;48.216;16.482;2023-03-13T08:26:36;99422.50;;;11.54;59.58
35519;BME280;21627;48.216;16.482;2023-03-13T08:29:11;99411.25;;;11.56;59.80
35519;BME280;21627;48.216;16.482;2023-03-13T08:31:43;99422.41;;;11.67;60.47
35519;BME280;21627;48.216;16.482;2023-03-13T08:34:11;99416.38;;;11.65;59.71
35519;BME280;21627;48.216;16.482;2023-03-13T08:36:39;99404.22;;;11.72;59.52
35519;BME280;21627;48.216;16.482;2023-03-13T08:39:12;99411.88;;;11.81;58.35
35519;BME280;21627;48.216;16.482;2023-03-13T08:41:40;99422.19;;;11.89;58.62
35519;BME280;21627;48.216;16.482;2023-03-13T08:44:11;99411.81;;;11.92;57.07
35519;BME280;21627;48.216;16.482;2023-03-13T08:46:40;99409.91;;;12.06;56.94
35519;BME280;21627;48.216;16.482;2023-03-13T08:49:08;99421.22;;;12.01;54.95
35519;BME280;21627;48.216;16.482;2023-03-13T08:51:36;99416.03;;;11.99;55.77
35519;BME280;21627;48.216;16.482;2023-03-13T08:54:04;99409.06;;;12.04;55.67
35519;BME280;21627;48.216;16.482;2023-03-13T08:56:32;99396.00;;;12.13;55.25
35519;BME280;21627;48.216;16.482;2023-03-13T08:59:02;99407.06;;;12.28;54.90
35519;BME280;21627;48.216;16.482;2023-03-13T09:01:35;99411.47;;;12.21;54.41
35519;BME280;21627;48.216;16.482;2023-03-13T09:04:03;99403.53;;;12.32;55.58
35519;BME280;21627;48.216;16.482;2023-03-13T09:06:36;99411.25;;;12.37;54.31
35519;BME280;21627;48.216;16.482;2023-03-13T09:09:06;99409.47;;;12.42;53.91
35519;BME280;21627;48.216;16.482;2023-03-13T09:11:35;99401.59;;;12.49;53.40
35519;BME280;21627;48.216;16.482;2023-03-13T09:14:02;99406.66;;;12.57;51.24
35519;BME280;21627;48.216;16.482;2023-03-13T09:16:32;99406.44;;;12.74;50.98
35519;BME280;21627;48.216;16.482;2023-03-13T09:19:00;99406.38;;;12.78;52.00
35519;BME280;21627;48.216;16.482;2023-03-13T09:21:33;99410.59;;;12.86;52.32
35519;BME280;21627;48.216;16.482;2023-03-13T09:24:01;99411.22;;;13.00;50.98
35519;BME280;21627;48.216;16.482;2023-03-13T09:26:29;99414.84;;;12.91;48.05
35519;BME280;21627;48.216;16.482;2023-03-13T09:28:57;99420.31;;;12.73;48.98
35519;BME280;21627;48.216;16.482;2023-03-13T09:31:32;99422.84;;;12.76;48.89
35519;BME280;21627;48.216;16.482;2023-03-13T09:34:00;99422.06;;;12.69;51.07
35519;BME280;21627;48.216;16.482;2023-03-13T09:36:27;99421.06;;;12.80;49.55
35519;BME280;21627;48.216;16.482;2023-03-13T09:38:57;99420.75;;;12.99;47.65
35519;BME280;21627;48.216;16.482;2023-03-13T09:41:39;99413.50;;;13.23;47.69
35519;BME280;21627;48.216;16.482;2023-03-13T09:47:11;99408.06;;;13.38;47.50
35519;BME280;21627;48.216;16.482;2023-03-13T09:50:04;99408.94;;;13.37;47.51
35519;BME280;21627;48.216;16.482;2023-03-13T09:52:39;99395.25;;;13.29;45.55
35519;BME280;21627;48.216;16.482;2023-03-13T09:55:19;99410.56;;;13.45;46.36
35519;BME280;21627;48.216;16.482;2023-03-13T09:57:59;99415.41;;;13.64;47.02
35519;BME280;21627;48.216;16.482;2023-03-13T10:00:40;99413.34;;;13.82;47.14
35519;BME280;21627;48.216;16.482;2023-03-13T10:03:34;99418.63;;;13.79;45.40
35519;BME280;21627;48.216;16.482;2023-03-13T10:06:18;99405.06;;;13.61;46.39
35519;BME280;21627;48.216;16.482;2023-03-13T10:08:46;99412.94;;;13.57;47.10
35519;BME280;21627;48.216;16.482;2023-03-13T10:11:36;99406.81;;;13.61;47.31
35519;BME280;21627;48.216;16.482;2023-03-13T10:14:29;99387.75;;;13.60;47.02
35519;BME280;21627;48.216;16.482;2023-03-13T10:17:36;99380.50;;;13.79;44.60
35519;BME280;21627;48.216;16.482;2023-03-13T10:22:37;99387.22;;;13.90;44.94
35519;BME280;21627;48.216;16.482;2023-03-13T10:25:34;99346.91;;;13.69;44.42
35519;BME280;21627;48.216;16.482;2023-03-13T10:28:02;99347.09;;;13.58;44.84
35519;BME280;21627;48.216;16.482;2023-03-13T10:30:33;99323.28;;;13.36;46.19
35519;BME280;21627;48.216;16.482;2023-03-13T10:35:38;99352.44;;;13.52;47.55
35519;BME280;21627;48.216;16.482;2023-03-13T10:38:18;99358.09;;;13.74;45.21
35519;BME280;21627;48.216;16.482;2023-03-13T10:40:57;99350.16;;;13.80;45.93
35519;BME280;21627;48.216;16.482;2023-03-13T10:43:27;99325.16;;;13.74;44.81
35519;BME280;21627;48.216;16.482;2023-03-13T10:45:55;99333.56;;;13.87;45.52
35519;BME280;21627;48.216;16.482;2023-03-13T10:48:28;99336.75;;;14.00;48.35
35519;BME280;21627;48.216;16.482;2023-03-13T10:50:56;99327.97;;;14.05;45.50
35519;BME280;21627;48.216;16.482;2023-03-13T10:56:13;99314.97;;;14.07;47.31
35519;BME280;21627;48.216;16.482;2023-03-13T10:58:47;99312.88;;;14.23;45.49
35519;BME280;21627;48.216;16.482;2023-03-13T11:01:26;99315.53;;;14.21;45.16
35519;BME280;21627;48.216;16.482;2023-03-13T11:04:29;99307.94;;;14.11;45.18
35519;BME280;21627;48.216;16.482;2023-03-13T11:07:15;99318.41;;;14.07;44.81
35519;BME280;21627;48.216;16.482;2023-03-13T11:09:42;99307.09;;;14.10;45.98
35519;BME280;21627;48.216;16.482;2023-03-13T11:12:23;99296.75;;;14.09;46.49
35519;BME280;21627;48.216;16.482;2023-03-13T11:14:57;99308.69;;;14.16;46.21
35519;BME280;21627;48.216;16.482;2023-03-13T11:17:37;99299.09;;;14.19;47.71
35519;BME280;21627;48.216;16.482;2023-03-13T11:20:20;99303.22;;;14.28;44.60
35519;BME280;21627;48.216;16.482;2023-03-13T11:26:36;99317.03;;;14.32;45.46
35519;BME280;21627;48.216;16.482;2023-03-13T11:29:27;99311.50;;;14.45;45.83
35519;BME280;21627;48.216;16.482;2023-03-13T11:32:09;99301.63;;;14.61;45.09
35519;BME280;21627;48.216;16.482;2023-03-13T11:34:44;99293.88;;;14.60;43.74
35519;BME280;21627;48.216;16.482;2023-03-13T11:37:15;99298.25;;;14.56;44.27
35519;BME280;21627;48.216;16.482;2023-03-13T11:51:20;99300.06;;;14.54;43.23
35519;BME280;21627;48.216;16.482;2023-03-13T11:59:43;99280.47;;;14.38;43.61
35519;BME280;21627;48.216;16.482;2023-03-13T12:02:49;99272.88;;;14.28;44.43
35519;BME280;21627;48.216;16.482;2023-03-13T12:05:19;99283.41;;;14.22;44.91
35519;BME280;21627;48.216;16.482;2023-03-13T12:08:02;99269.84;;;14.10;44.15
35519;BME280;21627;48.216;16.482;2023-03-13T12:10:40;99252.00;;;13.93;45.60
35519;BME280;21627;48.216;16.482;2023-03-13T12:13:18;99276.22;;;13.95;44.49
35519;BME280;21627;48.216;16.482;2023-03-13T12:15:58;99270.19;;;13.93;45.95
35519;BME280;21627;48.216;16.482;2023-03-13T12:18:34;99274.38;;;14.00;45.35
35519;BME280;21627;48.216;16.482;2023-03-13T12:21:29;99265.53;;;14.09;44.87
35519;BME280;21627;48.216;16.482;2023-03-13T12:24:13;99249.22;;;14.00;44.14
35519;BME280;21627;48.216;16.482;2023-03-13T12:27:04;99247.28;;;14.10;44.50
35519;BME280;21627;48.216;16.482;2023-03-13T12:35:27;99226.34;;;14.54;45.72
35519;BME280;21627;48.216;16.482;2023-03-13T12:43:33;99197.41;;;14.67;44.74
35519;BME280;21627;48.216;16.482;2023-03-13T12:59:46;99189.13;;;14.50;41.59
35519;BME280;21627;48.216;16.482;2023-03-13T13:02:22;99183.91;;;14.52;43.76
35519;BME280;21627;48.216;16.482;2023-03-13T13:04:52;99177.34;;;14.37;43.41
35519;BME280;21627;48.216;16.482;2023-03-13T13:10:20;99190.00;;;14.13;43.83
35519;BME280;21627;48.216;16.482;2023-03-13T13:15:57;99177.25;;;14.04;45.18
35519;BME280;21627;48.216;16.482;2023-03-13T13:18:29;99173.84;;;14.02;44.93
35519;BME280;21627;48.216;16.482;2023-03-13T13:23:39;99175.88;;;13.89;45.20
35519;BME280;21627;48.216;16.482;2023-03-13T13:37:02;99135.28;;;13.83;44.98
35519;BME280;21627;48.216;16.482;2023-03-13T13:39:50;99130.22;;;13.77;45.80
35519;BME280;21627;48.216;16.482;2023-03-13T13:47:45;99121.53;;;13.78;47.30
35519;BME280;21627;48.216;16.482;2023-03-13T13:50:24;99115.38;;;13.82;46.54
35519;BME280;21627;48.216;16.482;2023-03-13T13:53:30;99106.66;;;13.85;46.48
35519;BME280;21627;48.216;16.482;2023-03-13T13:55:58;99089.25;;;13.89;46.12
35519;BME280;21627;48.216;16.482;2023-03-13T13:58:30;99099.56;;;13.92;45.24
35519;BME280;21627;48.216;16.482;2023-03-13T14:01:04;99101.88;;;14.04;45.13
35519;BME280;21627;48.216;16.482;2023-03-13T14:03:39;99090.66;;;14.02;45.37
35519;BME280;21627;48.216;16.482;2023-03-13T14:06:17;99072.91;;;13.83;46.11
35519;BME280;21627;48.216;16.482;2023-03-13T14:08:48;99086.50;;;13.95;46.28
35519;BME280;21627;48.216;16.482;2023-03-13T14:14:20;99068.13;;;14.01;45.09
35519;BME280;21627;48.216;16.482;2023-03-13T14:16:55;99077.56;;;14.05;45.58
35519;BME280;21627;48.216;16.482;2023-03-13T14:19:27;99072.28;;;14.08;44.26
35519;BME280;21627;48.216;16.482;2023-03-13T14:22:01;99058.34;;;14.12;44.78
35519;BME280;21627;48.216;16.482;2023-03-13T14:24:29;99046.06;;;14.17;44.44
35519;BME280;21627;48.216;16.482;2023-03-13T14:26:56;99043.09;;;14.31;43.79
35519;BME280;21627;48.216;16.482;2023-03-13T14:29:24;99046.63;;;14.28;45.15
35519;BME280;21627;48.216;16.482;2023-03-13T14:31:57;99040.56;;;14.29;44.02
35519;BME280;21627;48.216;16.482;2023-03-13T14:34:26;99041.44;;;14.28;44.33
35519;BME280;21627;48.216;16.482;2023-03-13T14:37:00;99027.25;;;14.40;43.72
35519;BME280;21627;48.216;16.482;2023-03-13T14:39:45;99032.47;;;14.39;45.03
35519;BME280;21627;48.216;16.482;2023-03-13T14:42:16;99023.94;;;14.34;44.97
35519;BME280;21627;48.216;16.482;2023-03-13T14:44:46;99026.41;;;14.40;44.67
35519;BME280;21627;48.216;16.482;2023-03-13T14:47:29;99015.31;;;14.33;45.40
35519;BME280;21627;48.216;16.482;2023-03-13T14:50:04;99018.75;;;14.34;44.83
35519;BME280;21627;48.216;16.482;2023-03-13T14:52:36;99015.22;;;14.36;44.33